McDonald, Kansas
Current Conditions -  °F | °C
As of 10:35 AM on Friday 31 Oct 2014 (Local Time) from KSYF Reporting Station
Overcast Overcast  
Wind Chill: 26°   Ceiling: 500
Heat Index: 33°   Visibility: 10mi
Dew Point: 29°   Wind: 7mph
Humidity: 87%   Direction: 130°SE
Pressure: 30.5"   Gusts: NA
Location:  39.79°N, 101.38°W
Report Text: KSYF 311535Z AUTO 13006KT 10SM OVC005 00/M02 A3050 RMK AO2 T00041016
Loading
Personal Weather Stations






























Interactive Weather Map
Tropical Storm Tracking
New forecast layout! Learn more

10-Day Weather Forecast

Advertisements
Track Severe Weather on mobile